sensor_id;sensor_type;location;lat;lon;timestamp;temperature;humidity
3086;DHT22;52812;48.960;9.108;2022-08-25T00:01:27;18.90;99.90
3086;DHT22;52812;48.960;9.108;2022-08-25T00:03:53;18.90;99.90
3086;DHT22;52812;48.960;9.108;2022-08-25T00:06:19;19.00;99.90
3086;DHT22;52812;48.960;9.108;2022-08-25T00:08:46;19.00;99.90
3086;DHT22;52812;48.960;9.108;2022-08-25T00:11:16;18.90;99.90
3086;DHT22;52812;48.960;9.108;2022-08-25T00:13:44;18.80;99.90
3086;DHT22;52812;48.960;9.108;2022-08-25T00:16:13;18.80;99.90
3086;DHT22;52812;48.960;9.108;2022-08-25T00:18:41;18.80;99.90
3086;DHT22;52812;48.960;9.108;2022-08-25T00:21:10;18.80;99.90
3086;DHT22;52812;48.960;9.108;2022-08-25T00:23:36;18.80;99.90
3086;DHT22;52812;48.960;9.108;2022-08-25T00:26:02;18.70;99.90
3086;DHT22;52812;48.960;9.108;2022-08-25T00:28:28;18.70;99.90
3086;DHT22;52812;48.960;9.108;2022-08-25T00:30:55;18.70;99.90
3086;DHT22;52812;48.960;9.108;2022-08-25T00:33:23;18.70;99.90
3086;DHT22;52812;48.960;9.108;2022-08-25T00:35:50;18.70;99.90
3086;DHT22;52812;48.960;9.108;2022-08-25T00:38:16;18.80;99.90
3086;DHT22;52812;48.960;9.108;2022-08-25T00:40:42;18.60;99.90
3086;DHT22;52812;48.960;9.108;2022-08-25T00:43:08;18.50;99.90
3086;DHT22;52812;48.960;9.108;2022-08-25T00:45:34;18.50;99.90
3086;DHT22;52812;48.960;9.108;2022-08-25T00:48:00;18.50;99.90
3086;DHT22;52812;48.960;9.108;2022-08-25T00:50:28;18.40;99.90
3086;DHT22;52812;48.960;9.108;2022-08-25T00:52:58;18.20;99.90
3086;DHT22;52812;48.960;9.108;2022-08-25T00:55:35;18.20;99.90
3086;DHT22;52812;48.960;9.108;2022-08-25T00:58:08;18.10;99.90
3086;DHT22;52812;48.960;9.108;2022-08-25T01:00:47;18.20;99.90
3086;DHT22;52812;48.960;9.108;2022-08-25T01:03:14;18.10;99.90
3086;DHT22;52812;48.960;9.108;2022-08-25T01:05:40;18.00;99.90
3086;DHT22;52812;48.960;9.108;2022-08-25T01:08:08;17.90;99.90
3086;DHT22;52812;48.960;9.108;2022-08-25T01:10:35;17.80;99.90
3086;DHT22;52812;48.960;9.108;2022-08-25T01:15:43;17.70;99.90
3086;DHT22;52812;48.960;9.108;2022-08-25T01:18:09;17.70;99.90
3086;DHT22;52812;48.960;9.108;2022-08-25T01:20:35;17.60;99.90
3086;DHT22;52812;48.960;9.108;2022-08-25T01:23:01;17.80;99.90
3086;DHT22;52812;48.960;9.108;2022-08-25T01:26:00;17.70;99.90
3086;DHT22;52812;48.960;9.108;2022-08-25T01:28:26;17.70;99.90
3086;DHT22;52812;48.960;9.108;2022-08-25T01:30:52;17.60;99.90
3086;DHT22;52812;48.960;9.108;2022-08-25T01:33:17;17.50;99.90
3086;DHT22;52812;48.960;9.108;2022-08-25T01:35:44;17.40;99.90
3086;DHT22;52812;48.960;9.108;2022-08-25T01:38:10;17.30;99.90
3086;DHT22;52812;48.960;9.108;2022-08-25T01:40:36;17.30;99.90
3086;DHT22;52812;48.960;9.108;2022-08-25T01:43:07;17.20;99.90
3086;DHT22;52812;48.960;9.108;2022-08-25T01:45:37;17.20;99.90
3086;DHT22;52812;48.960;9.108;2022-08-25T01:48:05;17.30;99.90
3086;DHT22;52812;48.960;9.108;2022-08-25T01:50:31;17.30;99.90
3086;DHT22;52812;48.960;9.108;2022-08-25T01:55:22;17.20;99.90
3086;DHT22;52812;48.960;9.108;2022-08-25T01:57:47;17.00;99.90
3086;DHT22;52812;48.960;9.108;2022-08-25T02:00:14;17.00;99.90
3086;DHT22;52812;48.960;9.108;2022-08-25T02:02:40;17.00;99.90
3086;DHT22;52812;48.960;9.108;2022-08-25T02:05:08;16.90;99.90
3086;DHT22;52812;48.960;9.108;2022-08-25T02:07:35;16.90;99.90
3086;DHT22;52812;48.960;9.108;2022-08-25T02:10:00;16.80;99.90
3086;DHT22;52812;48.960;9.108;2022-08-25T02:12:28;16.90;99.90
3086;DHT22;52812;48.960;9.108;2022-08-25T02:14:56;16.90;99.90
3086;DHT22;52812;48.960;9.108;2022-08-25T02:17:22;16.80;99.90
3086;DHT22;52812;48.960;9.108;2022-08-25T02:19:48;16.80;99.90
3086;DHT22;52812;48.960;9.108;2022-08-25T02:22:14;16.80;99.90
3086;DHT22;52812;48.960;9.108;2022-08-25T02:24:39;16.70;99.90
3086;DHT22;52812;48.960;9.108;2022-08-25T02:27:05;16.70;99.90
3086;DHT22;52812;48.960;9.108;2022-08-25T02:29:31;16.60;99.90
3086;DHT22;52812;48.960;9.108;2022-08-25T02:31:56;16.60;99.90
3086;DHT22;52812;48.960;9.108;2022-08-25T02:34:23;16.60;99.90
3086;DHT22;52812;48.960;9.108;2022-08-25T02:36:48;16.60;99.90
3086;DHT22;52812;48.960;9.108;2022-08-25T02:39:14;16.50;99.90
3086;DHT22;52812;48.960;9.108;2022-08-25T02:41:40;16.50;99.90
3086;DHT22;52812;48.960;9.108;2022-08-25T02:44:07;16.50;99.90
3086;DHT22;52812;48.960;9.108;2022-08-25T02:46:33;16.60;99.90
3086;DHT22;52812;48.960;9.108;2022-08-25T02:48:59;16.40;99.90
3086;DHT22;52812;48.960;9.108;2022-08-25T02:51:26;16.40;99.90
3086;DHT22;52812;48.960;9.108;2022-08-25T02:53:54;16.40;99.90
3086;DHT22;52812;48.960;9.108;2022-08-25T02:56:22;16.40;99.90
3086;DHT22;52812;48.960;9.108;2022-08-25T02:58:48;16.40;99.90
3086;DHT22;52812;48.960;9.108;2022-08-25T03:01:14;16.40;99.90
3086;DHT22;52812;48.960;9.108;2022-08-25T03:03:42;16.20;99.90
3086;DHT22;52812;48.960;9.108;2022-08-25T03:06:10;16.20;99.90
3086;DHT22;52812;48.960;9.108;2022-08-25T03:08:37;16.00;99.90
3086;DHT22;52812;48.960;9.108;2022-08-25T03:11:03;16.10;99.90
3086;DHT22;52812;48.960;9.108;2022-08-25T03:13:30;16.10;99.90
3086;DHT22;52812;48.960;9.108;2022-08-25T03:16:00;16.10;99.90
3086;DHT22;52812;48.960;9.108;2022-08-25T03:18:27;16.20;99.90
3086;DHT22;52812;48.960;9.108;2022-08-25T03:20:52;16.10;99.90
3086;DHT22;52812;48.960;9.108;2022-08-25T03:23:18;16.20;99.90
3086;DHT22;52812;48.960;9.108;2022-08-25T03:25:44;16.10;99.90
3086;DHT22;52812;48.960;9.108;2022-08-25T03:28:28;16.20;99.90
3086;DHT22;52812;48.960;9.108;2022-08-25T03:30:55;16.20;99.90
3086;DHT22;52812;48.960;9.108;2022-08-25T03:33:21;16.10;99.90
3086;DHT22;52812;48.960;9.108;2022-08-25T03:35:46;16.00;99.90
3086;DHT22;52812;48.960;9.108;2022-08-25T03:38:12;15.90;99.90
3086;DHT22;52812;48.960;9.108;2022-08-25T03:40:38;15.80;99.90
3086;DHT22;52812;48.960;9.108;2022-08-25T03:43:03;15.80;99.90
3086;DHT22;52812;48.960;9.108;2022-08-25T03:45:29;15.80;99.90
3086;DHT22;52812;48.960;9.108;2022-08-25T03:47:55;15.90;99.90
3086;DHT22;52812;48.960;9.108;2022-08-25T03:50:21;15.80;99.90
3086;DHT22;52812;48.960;9.108;2022-08-25T03:52:55;15.80;99.90
3086;DHT22;52812;48.960;9.108;2022-08-25T03:55:22;15.80;99.90
3086;DHT22;52812;48.960;9.108;2022-08-25T03:57:48;15.80;99.90
3086;DHT22;52812;48.960;9.108;2022-08-25T04:00:14;15.80;99.90
3086;DHT22;52812;48.960;9.108;2022-08-25T04:02:40;15.80;99.90
3086;DHT22;52812;48.960;9.108;2022-08-25T04:05:08;15.80;99.90
3086;DHT22;52812;48.960;9.108;2022-08-25T04:07:34;15.70;99.90
3086;DHT22;52812;48.960;9.108;2022-08-25T04:10:00;15.60;99.90
3086;DHT22;52812;48.960;9.108;2022-08-25T04:12:25;15.70;99.90
3086;DHT22;52812;48.960;9.108;2022-08-25T04:14:51;15.60;99.90
3086;DHT22;52812;48.960;9.108;2022-08-25T04:17:17;15.60;99.90
3086;DHT22;52812;48.960;9.108;2022-08-25T04:19:43;15.70;99.90
3086;DHT22;52812;48.960;9.108;2022-08-25T04:22:09;15.60;99.90
3086;DHT22;52812;48.960;9.108;2022-08-25T04:24:35;15.70;99.90
3086;DHT22;52812;48.960;9.108;2022-08-25T04:27:01;15.70;99.90
3086;DHT22;52812;48.960;9.108;2022-08-25T04:29:26;15.70;99.90
3086;DHT22;52812;48.960;9.108;2022-08-25T04:31:54;15.80;99.90
3086;DHT22;52812;48.960;9.108;2022-08-25T04:34:23;15.80;99.90
3086;DHT22;52812;48.960;9.108;2022-08-25T04:36:49;15.80;99.90
3086;DHT22;52812;48.960;9.108;2022-08-25T04:39:16;15.80;99.90
3086;DHT22;52812;48.960;9.108;2022-08-25T04:41:45;15.80;99.90
3086;DHT22;52812;48.960;9.108;2022-08-25T04:44:10;15.80;99.90
3086;DHT22;52812;48.960;9.108;2022-08-25T04:46:36;15.80;99.90
3086;DHT22;52812;48.960;9.108;2022-08-25T04:49:03;15.80;99.90
3086;DHT22;52812;48.960;9.108;2022-08-25T04:51:32;15.70;99.90
3086;DHT22;52812;48.960;9.108;2022-08-25T04:54:03;15.70;99.90
3086;DHT22;52812;48.960;9.108;2022-08-25T04:56:30;15.70;99.90
3086;DHT22;52812;48.960;9.108;2022-08-25T04:59:04;15.70;99.90
3086;DHT22;52812;48.960;9.108;2022-08-25T05:01:31;15.80;99.90
3086;DHT22;52812;48.960;9.108;2022-08-25T05:04:00;15.90;99.90
3086;DHT22;52812;48.960;9.108;2022-08-25T05:06:27;15.90;99.90
3086;DHT22;52812;48.960;9.108;2022-08-25T05:08:53;16.00;99.90
3086;DHT22;52812;48.960;9.108;2022-08-25T05:11:20;16.10;99.90
3086;DHT22;52812;48.960;9.108;2022-08-25T05:13:48;16.10;99.90
3086;DHT22;52812;48.960;9.108;2022-08-25T05:16:15;16.30;99.90
3086;DHT22;52812;48.960;9.108;2022-08-25T05:18:41;16.40;99.90
3086;DHT22;52812;48.960;9.108;2022-08-25T05:21:09;16.50;99.90
3086;DHT22;52812;48.960;9.108;2022-08-25T05:23:36;16.60;99.90
3086;DHT22;52812;48.960;9.108;2022-08-25T05:26:07;16.90;99.90
3086;DHT22;52812;48.960;9.108;2022-08-25T05:28:33;17.30;99.90
3086;DHT22;52812;48.960;9.108;2022-08-25T05:31:01;17.80;99.90
3086;DHT22;52812;48.960;9.108;2022-08-25T05:33:27;18.30;99.90
3086;DHT22;52812;48.960;9.108;2022-08-25T05:35:53;18.90;99.90
3086;DHT22;52812;48.960;9.108;2022-08-25T05:38:20;19.30;99.90
3086;DHT22;52812;48.960;9.108;2022-08-25T05:40:46;19.70;99.90
3086;DHT22;52812;48.960;9.108;2022-08-25T05:43:11;20.40;99.90
3086;DHT22;52812;48.960;9.108;2022-08-25T05:45:39;20.80;99.90
3086;DHT22;52812;48.960;9.108;2022-08-25T05:48:05;21.40;99.90
3086;DHT22;52812;48.960;9.108;2022-08-25T05:50:31;21.60;99.90
3086;DHT22;52812;48.960;9.108;2022-08-25T05:52:57;21.90;99.90
3086;DHT22;52812;48.960;9.108;2022-08-25T05:55:22;22.30;99.90
3086;DHT22;52812;48.960;9.108;2022-08-25T05:57:49;22.50;99.90
3086;DHT22;52812;48.960;9.108;2022-08-25T06:00:15;22.70;99.90
3086;DHT22;52812;48.960;9.108;2022-08-25T06:02:41;22.90;99.90
3086;DHT22;52812;48.960;9.108;2022-08-25T06:05:20;23.10;99.90
3086;DHT22;52812;48.960;9.108;2022-08-25T06:07:47;23.50;99.90
3086;DHT22;52812;48.960;9.108;2022-08-25T06:10:13;23.90;99.90
3086;DHT22;52812;48.960;9.108;2022-08-25T06:12:41;24.20;99.90
3086;DHT22;52812;48.960;9.108;2022-08-25T06:15:22;24.50;99.90
3086;DHT22;52812;48.960;9.108;2022-08-25T06:17:49;25.00;99.90
3086;DHT22;52812;48.960;9.108;2022-08-25T06:20:17;25.40;99.90
3086;DHT22;52812;48.960;9.108;2022-08-25T06:22:43;25.50;99.90
3086;DHT22;52812;48.960;9.108;2022-08-25T06:25:10;25.50;99.90
3086;DHT22;52812;48.960;9.108;2022-08-25T06:27:37;25.60;99.90
3086;DHT22;52812;48.960;9.108;2022-08-25T06:30:05;25.70;99.90
3086;DHT22;52812;48.960;9.108;2022-08-25T06:32:33;25.80;99.90
3086;DHT22;52812;48.960;9.108;2022-08-25T06:35:00;25.80;99.90
3086;DHT22;52812;48.960;9.108;2022-08-25T06:37:26;26.00;99.90
3086;DHT22;52812;48.960;9.108;2022-08-25T06:39:52;26.10;99.90
3086;DHT22;52812;48.960;9.108;2022-08-25T06:42:18;26.20;99.90
3086;DHT22;52812;48.960;9.108;2022-08-25T06:44:44;26.20;99.90
3086;DHT22;52812;48.960;9.108;2022-08-25T06:47:09;26.30;99.90
3086;DHT22;52812;48.960;9.108;2022-08-25T06:49:35;26.50;99.90
3086;DHT22;52812;48.960;9.108;2022-08-25T06:52:01;26.40;99.90
3086;DHT22;52812;48.960;9.108;2022-08-25T06:54:26;26.60;99.90
3086;DHT22;52812;48.960;9.108;2022-08-25T06:56:52;26.80;99.90
3086;DHT22;52812;48.960;9.108;2022-08-25T06:59:18;26.60;99.90
3086;DHT22;52812;48.960;9.108;2022-08-25T07:01:43;26.70;99.90
3086;DHT22;52812;48.960;9.108;2022-08-25T07:04:09;26.90;99.90
3086;DHT22;52812;48.960;9.108;2022-08-25T07:06:35;27.20;99.90
3086;DHT22;52812;48.960;9.108;2022-08-25T07:09:04;27.60;99.90
3086;DHT22;52812;48.960;9.108;2022-08-25T07:11:30;27.50;99.90
3086;DHT22;52812;48.960;9.108;2022-08-25T07:14:02;27.40;99.90
3086;DHT22;52812;48.960;9.108;2022-08-25T07:16:29;27.60;99.90
3086;DHT22;52812;48.960;9.108;2022-08-25T07:18:56;27.70;99.90
3086;DHT22;52812;48.960;9.108;2022-08-25T07:21:24;27.70;99.90
3086;DHT22;52812;48.960;9.108;2022-08-25T07:23:49;27.90;99.90
3086;DHT22;52812;48.960;9.108;2022-08-25T07:26:22;28.20;99.90
3086;DHT22;52812;48.960;9.108;2022-08-25T07:28:48;28.50;99.90
3086;DHT22;52812;48.960;9.108;2022-08-25T07:31:14;28.70;99.90
3086;DHT22;52812;48.960;9.108;2022-08-25T07:33:39;28.70;99.90
3086;DHT22;52812;48.960;9.108;2022-08-25T07:36:31;28.60;99.90
3086;DHT22;52812;48.960;9.108;2022-08-25T07:38:58;28.90;99.90
3086;DHT22;52812;48.960;9.108;2022-08-25T07:41:24;28.50;99.90
3086;DHT22;52812;48.960;9.108;2022-08-25T07:43:50;28.10;99.90
3086;DHT22;52812;48.960;9.108;2022-08-25T07:46:16;27.60;99.90
3086;DHT22;52812;48.960;9.108;2022-08-25T07:48:41;27.70;99.90
3086;DHT22;52812;48.960;9.108;2022-08-25T07:51:09;27.40;99.90
3086;DHT22;52812;48.960;9.108;2022-08-25T07:53:35;28.10;99.90
3086;DHT22;52812;48.960;9.108;2022-08-25T07:56:00;28.20;99.90
3086;DHT22;52812;48.960;9.108;2022-08-25T07:58:26;28.20;99.90
3086;DHT22;52812;48.960;9.108;2022-08-25T08:00:53;28.00;99.90
3086;DHT22;52812;48.960;9.108;2022-08-25T08:03:19;27.80;99.90
3086;DHT22;52812;48.960;9.108;2022-08-25T08:05:46;28.30;99.90
3086;DHT22;52812;48.960;9.108;2022-08-25T08:08:12;28.40;99.90
3086;DHT22;52812;48.960;9.108;2022-08-25T08:10:39;28.40;99.90
3086;DHT22;52812;48.960;9.108;2022-08-25T08:13:06;27.60;99.90
3086;DHT22;52812;48.960;9.108;2022-08-25T08:15:31;27.50;99.90
3086;DHT22;52812;48.960;9.108;2022-08-25T08:17:58;28.00;99.90
3086;DHT22;52812;48.960;9.108;2022-08-25T08:20:24;27.60;99.90
3086;DHT22;52812;48.960;9.108;2022-08-25T08:22:50;27.60;99.90
3086;DHT22;52812;48.960;9.108;2022-08-25T08:25:16;27.50;99.90
3086;DHT22;52812;48.960;9.108;2022-08-25T08:27:41;27.90;99.90
3086;DHT22;52812;48.960;9.108;2022-08-25T08:30:08;28.30;99.90
3086;DHT22;52812;48.960;9.108;2022-08-25T08:32:34;28.50;99.90
3086;DHT22;52812;48.960;9.108;2022-08-25T08:35:00;28.40;99.90
3086;DHT22;52812;48.960;9.108;2022-08-25T08:37:25;28.30;99.90
3086;DHT22;52812;48.960;9.108;2022-08-25T08:39:52;27.50;99.90
3086;DHT22;52812;48.960;9.108;2022-08-25T08:55:47;27.20;99.90
3086;DHT22;52812;48.960;9.108;2022-08-25T08:58:22;26.90;99.90
3086;DHT22;52812;48.960;9.108;2022-08-25T09:00:51;26.40;99.90
3086;DHT22;52812;48.960;9.108;2022-08-25T09:06:02;26.70;99.90
3086;DHT22;52812;48.960;9.108;2022-08-25T09:08:30;26.90;99.90
3086;DHT22;52812;48.960;9.108;2022-08-25T09:16:21;26.90;99.90
3086;DHT22;52812;48.960;9.108;2022-08-25T09:22:36;26.80;99.90
3086;DHT22;52812;48.960;9.108;2022-08-25T09:25:07;26.90;99.90
3086;DHT22;52812;48.960;9.108;2022-08-25T09:30:27;27.50;99.90
3086;DHT22;52812;48.960;9.108;2022-08-25T09:32:59;27.60;99.90
3086;DHT22;52812;48.960;9.108;2022-08-25T09:35:31;27.70;99.90
3086;DHT22;52812;48.960;9.108;2022-08-25T09:38:06;28.00;99.90
3086;DHT22;52812;48.960;9.108;2022-08-25T09:40:41;28.30;99.90
3086;DHT22;52812;48.960;9.108;2022-08-25T09:48:47;28.80;99.90
3086;DHT22;52812;48.960;9.108;2022-08-25T09:51:27;28.80;99.90
3086;DHT22;52812;48.960;9.108;2022-08-25T09:56:25;28.50;99.90
3086;DHT22;52812;48.960;9.108;2022-08-25T09:58:52;28.60;99.90
3086;DHT22;52812;48.960;9.108;2022-08-25T10:01:20;28.80;99.90
3086;DHT22;52812;48.960;9.108;2022-08-25T10:06:24;28.50;99.90
3086;DHT22;52812;48.960;9.108;2022-08-25T10:08:56;28.50;99.90
3086;DHT22;52812;48.960;9.108;2022-08-25T10:11:43;28.70;99.90
3086;DHT22;52812;48.960;9.108;2022-08-25T10:14:18;28.80;99.90
3086;DHT22;52812;48.960;9.108;2022-08-25T10:16:45;29.00;99.90
3086;DHT22;52812;48.960;9.108;2022-08-25T10:19:12;29.10;99.90
3086;DHT22;52812;48.960;9.108;2022-08-25T10:21:40;29.30;99.40
3086;DHT22;52812;48.960;9.108;2022-08-25T10:24:08;29.50;99.50
3086;DHT22;52812;48.960;9.108;2022-08-25T10:26:54;29.50;98.30
3086;DHT22;52812;48.960;9.108;2022-08-25T10:29:52;29.20;98.60
3086;DHT22;52812;48.960;9.108;2022-08-25T10:34:57;29.50;98.30
3086;DHT22;52812;48.960;9.108;2022-08-25T10:43:05;30.20;97.10
3086;DHT22;52812;48.960;9.108;2022-08-25T10:51:13;30.20;96.00
3086;DHT22;52812;48.960;9.108;2022-08-25T10:56:15;30.30;95.90
3086;DHT22;52812;48.960;9.108;2022-08-25T11:07:06;29.90;95.50
3086;DHT22;52812;48.960;9.108;2022-08-25T11:09:36;30.10;95.50
3086;DHT22;52812;48.960;9.108;2022-08-25T11:12:09;30.30;95.40
3086;DHT22;52812;48.960;9.108;2022-08-25T11:14:53;30.20;96.20
3086;DHT22;52812;48.960;9.108;2022-08-25T11:17:38;30.10;95.40
3086;DHT22;52812;48.960;9.108;2022-08-25T11:20:16;30.20;95.30
3086;DHT22;52812;48.960;9.108;2022-08-25T11:22:58;29.80;96.10
3086;DHT22;52812;48.960;9.108;2022-08-25T11:25:40;29.60;94.90
3086;DHT22;52812;48.960;9.108;2022-08-25T11:28:20;29.50;95.00
3086;DHT22;52812;48.960;9.108;2022-08-25T11:30:48;29.60;95.30
3086;DHT22;52812;48.960;9.108;2022-08-25T11:33:16;29.40;95.10
3086;DHT22;52812;48.960;9.108;2022-08-25T11:35:52;29.20;95.10
3086;DHT22;52812;48.960;9.108;2022-08-25T11:42:11;29.70;95.00
3086;DHT22;52812;48.960;9.108;2022-08-25T11:47:10;30.00;94.00
3086;DHT22;52812;48.960;9.108;2022-08-25T11:57:41;29.10;95.40
3086;DHT22;52812;48.960;9.108;2022-08-25T12:02:44;28.80;95.60
3086;DHT22;52812;48.960;9.108;2022-08-25T12:12:59;28.60;94.90
3086;DHT22;52812;48.960;9.108;2022-08-25T12:29:39;29.30;94.30
3086;DHT22;52812;48.960;9.108;2022-08-25T12:37:31;29.30;94.30
3086;DHT22;52812;48.960;9.108;2022-08-25T12:40:00;29.50;94.30
3086;DHT22;52812;48.960;9.108;2022-08-25T12:42:38;29.70;94.80
3086;DHT22;52812;48.960;9.108;2022-08-25T12:45:12;29.70;93.10
3086;DHT22;52812;48.960;9.108;2022-08-25T12:47:42;29.60;92.90
3086;DHT22;52812;48.960;9.108;2022-08-25T12:51:17;29.30;93.30
3086;DHT22;52812;48.960;9.108;2022-08-25T12:56:30;29.10;93.20
3086;DHT22;52812;48.960;9.108;2022-08-25T12:59:22;29.10;93.80
3086;DHT22;52812;48.960;9.108;2022-08-25T13:09:03;29.00;93.40
3086;DHT22;52812;48.960;9.108;2022-08-25T13:11:00;29.10;93.70
3086;DHT22;52812;48.960;9.108;2022-08-25T13:13:53;29.20;93.50
3086;DHT22;52812;48.960;9.108;2022-08-25T13:16:24;29.50;93.50
3086;DHT22;52812;48.960;9.108;2022-08-25T13:18:52;29.40;93.00
3086;DHT22;52812;48.960;9.108;2022-08-25T13:21:37;29.40;93.00
3086;DHT22;52812;48.960;9.108;2022-08-25T13:24:31;29.40;92.80
3086;DHT22;52812;48.960;9.108;2022-08-25T13:27:03;29.50;93.60
3086;DHT22;52812;48.960;9.108;2022-08-25T13:29:31;29.40;93.50
3086;DHT22;52812;48.960;9.108;2022-08-25T13:34:27;29.40;93.20
3086;DHT22;52812;48.960;9.108;2022-08-25T13:36:55;29.70;93.80
3086;DHT22;52812;48.960;9.108;2022-08-25T13:39:39;29.80;93.10
3086;DHT22;52812;48.960;9.108;2022-08-25T13:42:12;29.90;92.80
3086;DHT22;52812;48.960;9.108;2022-08-25T13:44:38;30.00;93.10
3086;DHT22;52812;48.960;9.108;2022-08-25T13:47:19;29.70;92.40
3086;DHT22;52812;48.960;9.108;2022-08-25T13:50:46;29.60;92.40
3086;DHT22;52812;48.960;9.108;2022-08-25T13:53:14;29.70;92.40
3086;DHT22;52812;48.960;9.108;2022-08-25T13:58:18;29.70;92.30
3086;DHT22;52812;48.960;9.108;2022-08-25T14:00:58;29.80;92.40
3086;DHT22;52812;48.960;9.108;2022-08-25T14:03:30;29.90;92.60
3086;DHT22;52812;48.960;9.108;2022-08-25T14:08:47;30.00;91.70
3086;DHT22;52812;48.960;9.108;2022-08-25T14:13:42;30.10;91.50
3086;DHT22;52812;48.960;9.108;2022-08-25T14:16:18;30.20;91.70
3086;DHT22;52812;48.960;9.108;2022-08-25T14:18:50;30.30;91.20
3086;DHT22;52812;48.960;9.108;2022-08-25T14:21:17;30.50;91.80
3086;DHT22;52812;48.960;9.108;2022-08-25T14:23:43;30.60;91.50
3086;DHT22;52812;48.960;9.108;2022-08-25T14:26:09;30.80;91.00
3086;DHT22;52812;48.960;9.108;2022-08-25T14:28:34;30.80;90.80
3086;DHT22;52812;48.960;9.108;2022-08-25T14:31:07;30.90;91.20
3086;DHT22;52812;48.960;9.108;2022-08-25T14:33:52;30.90;90.30
3086;DHT22;52812;48.960;9.108;2022-08-25T14:36:19;30.90;89.90
3086;DHT22;52812;48.960;9.108;2022-08-25T14:38:44;30.60;90.10
3086;DHT22;52812;48.960;9.108;2022-08-25T14:41:10;30.70;90.60
3086;DHT22;52812;48.960;9.108;2022-08-25T14:43:36;30.70;90.10
3086;DHT22;52812;48.960;9.108;2022-08-25T14:46:08;30.70;90.00
3086;DHT22;52812;48.960;9.108;2022-08-25T14:48:41;30.70;89.60
3086;DHT22;52812;48.960;9.108;2022-08-25T14:51:10;30.60;89.60
3086;DHT22;52812;48.960;9.108;2022-08-25T14:53:36;30.60;89.70
3086;DHT22;52812;48.960;9.108;2022-08-25T14:56:02;30.60;89.40
3086;DHT22;52812;48.960;9.108;2022-08-25T14:58:28;30.70;88.90
3086;DHT22;52812;48.960;9.108;2022-08-25T15:00:54;30.50;89.30
3086;DHT22;52812;48.960;9.108;2022-08-25T15:03:27;30.40;89.40
3086;DHT22;52812;48.960;9.108;2022-08-25T15:05:53;30.40;89.80
3086;DHT22;52812;48.960;9.108;2022-08-25T15:08:19;30.30;90.40
3086;DHT22;52812;48.960;9.108;2022-08-25T15:11:03;30.20;89.90
3086;DHT22;52812;48.960;9.108;2022-08-25T15:13:29;30.20;90.10
3086;DHT22;52812;48.960;9.108;2022-08-25T15:15:55;30.10;90.30
3086;DHT22;52812;48.960;9.108;2022-08-25T15:18:21;30.10;90.30
3086;DHT22;52812;48.960;9.108;2022-08-25T15:20:47;30.10;90.00
3086;DHT22;52812;48.960;9.108;2022-08-25T15:23:13;30.20;90.50
3086;DHT22;52812;48.960;9.108;2022-08-25T15:25:40;30.10;90.00
3086;DHT22;52812;48.960;9.108;2022-08-25T15:28:07;30.10;90.20
3086;DHT22;52812;48.960;9.108;2022-08-25T15:30:34;30.10;89.40
3086;DHT22;52812;48.960;9.108;2022-08-25T15:33:00;30.10;90.20
3086;DHT22;52812;48.960;9.108;2022-08-25T15:35:26;30.10;90.00
3086;DHT22;52812;48.960;9.108;2022-08-25T15:37:51;30.00;90.00
3086;DHT22;52812;48.960;9.108;2022-08-25T15:40:18;30.00;90.10
3086;DHT22;52812;48.960;9.108;2022-08-25T15:42:43;29.90;90.00
3086;DHT22;52812;48.960;9.108;2022-08-25T15:45:10;29.90;90.20
3086;DHT22;52812;48.960;9.108;2022-08-25T15:47:35;29.80;90.00
3086;DHT22;52812;48.960;9.108;2022-08-25T15:50:06;29.70;90.40
3086;DHT22;52812;48.960;9.108;2022-08-25T15:52:32;29.60;90.40
3086;DHT22;52812;48.960;9.108;2022-08-25T15:54:58;29.50;90.50
3086;DHT22;52812;48.960;9.108;2022-08-25T15:57:24;29.50;90.50
3086;DHT22;52812;48.960;9.108;2022-08-25T15:59:51;29.40;90.00
3086;DHT22;52812;48.960;9.108;2022-08-25T16:02:17;29.40;90.20
3086;DHT22;52812;48.960;9.108;2022-08-25T16:04:42;29.40;90.10
3086;DHT22;52812;48.960;9.108;2022-08-25T16:07:08;29.30;90.10
3086;DHT22;52812;48.960;9.108;2022-08-25T16:09:34;29.30;90.50
3086;DHT22;52812;48.960;9.108;2022-08-25T16:12:00;29.20;90.80
3086;DHT22;52812;48.960;9.108;2022-08-25T16:14:26;29.20;91.20
3086;DHT22;52812;48.960;9.108;2022-08-25T16:16:52;29.10;90.50
3086;DHT22;52812;48.960;9.108;2022-08-25T16:19:17;29.00;90.50
3086;DHT22;52812;48.960;9.108;2022-08-25T16:21:43;29.10;90.40
3086;DHT22;52812;48.960;9.108;2022-08-25T16:24:09;29.10;90.10
3086;DHT22;52812;48.960;9.108;2022-08-25T16:26:37;29.10;90.60
3086;DHT22;52812;48.960;9.108;2022-08-25T16:29:07;29.10;90.20
3086;DHT22;52812;48.960;9.108;2022-08-25T16:31:33;29.10;90.30
3086;DHT22;52812;48.960;9.108;2022-08-25T16:33:58;29.10;90.60
3086;DHT22;52812;48.960;9.108;2022-08-25T16:36:26;29.10;90.00
3086;DHT22;52812;48.960;9.108;2022-08-25T16:38:53;29.20;89.50
3086;DHT22;52812;48.960;9.108;2022-08-25T16:41:23;29.20;89.70
3086;DHT22;52812;48.960;9.108;2022-08-25T16:43:50;29.30;89.50
3086;DHT22;52812;48.960;9.108;2022-08-25T16:46:17;29.30;90.60
3086;DHT22;52812;48.960;9.108;2022-08-25T16:48:44;29.30;90.70
3086;DHT22;52812;48.960;9.108;2022-08-25T16:51:16;29.40;90.40
3086;DHT22;52812;48.960;9.108;2022-08-25T16:53:42;29.50;90.20
3086;DHT22;52812;48.960;9.108;2022-08-25T16:56:27;29.50;90.20
3086;DHT22;52812;48.960;9.108;2022-08-25T16:58:54;29.60;90.40
3086;DHT22;52812;48.960;9.108;2022-08-25T17:01:20;29.60;90.50
3086;DHT22;52812;48.960;9.108;2022-08-25T17:03:48;29.50;90.30
3086;DHT22;52812;48.960;9.108;2022-08-25T17:06:14;29.50;90.40
3086;DHT22;52812;48.960;9.108;2022-08-25T17:08:40;29.40;90.50
3086;DHT22;52812;48.960;9.108;2022-08-25T17:13:34;29.20;90.50
3086;DHT22;52812;48.960;9.108;2022-08-25T17:16:00;29.20;90.70
3086;DHT22;52812;48.960;9.108;2022-08-25T17:18:27;29.10;90.70
3086;DHT22;52812;48.960;9.108;2022-08-25T17:21:01;29.00;91.00
3086;DHT22;52812;48.960;9.108;2022-08-25T17:23:27;28.90;90.90
3086;DHT22;52812;48.960;9.108;2022-08-25T17:25:53;28.80;90.90
3086;DHT22;52812;48.960;9.108;2022-08-25T17:28:19;28.80;90.90
3086;DHT22;52812;48.960;9.108;2022-08-25T17:30:45;28.80;90.80
3086;DHT22;52812;48.960;9.108;2022-08-25T17:33:11;28.70;90.90
3086;DHT22;52812;48.960;9.108;2022-08-25T17:35:43;28.70;91.00
3086;DHT22;52812;48.960;9.108;2022-08-25T17:38:11;28.60;91.20
3086;DHT22;52812;48.960;9.108;2022-08-25T17:40:37;28.50;91.10
3086;DHT22;52812;48.960;9.108;2022-08-25T17:43:03;28.40;91.30
3086;DHT22;52812;48.960;9.108;2022-08-25T17:45:30;28.30;91.10
3086;DHT22;52812;48.960;9.108;2022-08-25T17:47:56;28.30;91.20
3086;DHT22;52812;48.960;9.108;2022-08-25T17:50:22;28.20;91.20
3086;DHT22;52812;48.960;9.108;2022-08-25T17:52:50;28.20;91.40
3086;DHT22;52812;48.960;9.108;2022-08-25T17:55:16;27.90;91.80
3086;DHT22;52812;48.960;9.108;2022-08-25T17:57:46;27.90;91.80
3086;DHT22;52812;48.960;9.108;2022-08-25T18:00:12;27.80;92.00
3086;DHT22;52812;48.960;9.108;2022-08-25T18:02:39;27.70;92.00
3086;DHT22;52812;48.960;9.108;2022-08-25T18:05:05;27.70;92.10
3086;DHT22;52812;48.960;9.108;2022-08-25T18:07:31;27.60;92.10
3086;DHT22;52812;48.960;9.108;2022-08-25T18:09:57;27.60;92.10